sensor_id;sensor_type;location;lat;lon;timestamp;temperature;humidity
11188;DHT22;5650;52.700;7.306;2023-04-01T00:02:25;10.70;99.90
11188;DHT22;5650;52.700;7.306;2023-04-01T00:04:53;10.70;99.90
11188;DHT22;5650;52.700;7.306;2023-04-01T00:07:27;10.80;99.90
11188;DHT22;5650;52.700;7.306;2023-04-01T00:09:57;10.80;99.90
11188;DHT22;5650;52.700;7.306;2023-04-01T00:12:39;10.80;99.90
11188;DHT22;5650;52.700;7.306;2023-04-01T00:15:08;10.80;99.90
11188;DHT22;5650;52.700;7.306;2023-04-01T00:17:35;10.70;99.90
11188;DHT22;5650;52.700;7.306;2023-04-01T00:20:08;10.70;99.90
11188;DHT22;5650;52.700;7.306;2023-04-01T00:22:38;10.70;99.90
11188;DHT22;5650;52.700;7.306;2023-04-01T00:25:13;10.70;99.90
11188;DHT22;5650;52.700;7.306;2023-04-01T00:27:45;10.70;99.90
11188;DHT22;5650;52.700;7.306;2023-04-01T00:30:12;10.70;99.90
11188;DHT22;5650;52.700;7.306;2023-04-01T00:32:40;10.70;99.90
11188;DHT22;5650;52.700;7.306;2023-04-01T00:35:07;10.70;99.90
11188;DHT22;5650;52.700;7.306;2023-04-01T00:37:36;10.70;99.90
11188;DHT22;5650;52.700;7.306;2023-04-01T00:40:06;10.70;99.90
11188;DHT22;5650;52.700;7.306;2023-04-01T00:42:40;10.70;99.90
11188;DHT22;5650;52.700;7.306;2023-04-01T00:48:16;10.60;99.90
11188;DHT22;5650;52.700;7.306;2023-04-01T00:50:54;10.60;99.90
11188;DHT22;5650;52.700;7.306;2023-04-01T00:53:28;10.60;99.90
11188;DHT22;5650;52.700;7.306;2023-04-01T00:56:03;10.60;99.90
11188;DHT22;5650;52.700;7.306;2023-04-01T00:58:40;10.60;99.90
11188;DHT22;5650;52.700;7.306;2023-04-01T01:01:10;10.50;99.90
11188;DHT22;5650;52.700;7.306;2023-04-01T01:03:45;10.50;99.90
11188;DHT22;5650;52.700;7.306;2023-04-01T01:06:26;10.50;99.90
11188;DHT22;5650;52.700;7.306;2023-04-01T01:09:10;10.50;99.90
11188;DHT22;5650;52.700;7.306;2023-04-01T01:11:43;10.50;99.90
11188;DHT22;5650;52.700;7.306;2023-04-01T01:14:29;10.50;99.90
11188;DHT22;5650;52.700;7.306;2023-04-01T01:17:05;10.40;99.90
11188;DHT22;5650;52.700;7.306;2023-04-01T01:20:06;10.40;99.90
11188;DHT22;5650;52.700;7.306;2023-04-01T01:25:47;10.40;99.90
11188;DHT22;5650;52.700;7.306;2023-04-01T01:28:33;10.40;99.90
11188;DHT22;5650;52.700;7.306;2023-04-01T01:31:16;10.40;99.90
11188;DHT22;5650;52.700;7.306;2023-04-01T01:34:00;10.40;99.90
11188;DHT22;5650;52.700;7.306;2023-04-01T01:36:32;10.40;99.90
11188;DHT22;5650;52.700;7.306;2023-04-01T01:39:01;10.40;99.90
11188;DHT22;5650;52.700;7.306;2023-04-01T01:41:31;10.40;99.90
11188;DHT22;5650;52.700;7.306;2023-04-01T01:44:00;10.40;99.90
11188;DHT22;5650;52.700;7.306;2023-04-01T01:46:30;10.40;99.90
11188;DHT22;5650;52.700;7.306;2023-04-01T01:48:59;10.40;99.90
11188;DHT22;5650;52.700;7.306;2023-04-01T01:51:31;10.40;99.90
11188;DHT22;5650;52.700;7.306;2023-04-01T01:54:01;10.40;99.90
11188;DHT22;5650;52.700;7.306;2023-04-01T01:56:29;10.40;99.90
11188;DHT22;5650;52.700;7.306;2023-04-01T01:59:00;10.40;99.90
11188;DHT22;5650;52.700;7.306;2023-04-01T02:01:30;10.40;99.90
11188;DHT22;5650;52.700;7.306;2023-04-01T02:03:58;10.40;99.90
11188;DHT22;5650;52.700;7.306;2023-04-01T02:06:29;10.40;99.90
11188;DHT22;5650;52.700;7.306;2023-04-01T02:09:09;10.40;99.90
11188;DHT22;5650;52.700;7.306;2023-04-01T02:11:41;10.40;99.90
11188;DHT22;5650;52.700;7.306;2023-04-01T02:14:15;10.40;99.90
11188;DHT22;5650;52.700;7.306;2023-04-01T02:16:51;10.40;99.90
11188;DHT22;5650;52.700;7.306;2023-04-01T02:19:23;10.40;99.90
11188;DHT22;5650;52.700;7.306;2023-04-01T02:21:55;10.40;99.90
11188;DHT22;5650;52.700;7.306;2023-04-01T02:24:30;10.40;99.90
11188;DHT22;5650;52.700;7.306;2023-04-01T02:27:01;10.40;99.90
11188;DHT22;5650;52.700;7.306;2023-04-01T02:29:29;10.40;99.90
11188;DHT22;5650;52.700;7.306;2023-04-01T02:32:00;10.40;99.90
11188;DHT22;5650;52.700;7.306;2023-04-01T02:34:28;10.30;99.90
11188;DHT22;5650;52.700;7.306;2023-04-01T02:36:56;10.40;99.90
11188;DHT22;5650;52.700;7.306;2023-04-01T02:39:31;10.30;99.90
11188;DHT22;5650;52.700;7.306;2023-04-01T02:42:04;10.40;99.90
11188;DHT22;5650;52.700;7.306;2023-04-01T02:44:32;10.30;99.90
11188;DHT22;5650;52.700;7.306;2023-04-01T02:47:02;10.30;99.90
11188;DHT22;5650;52.700;7.306;2023-04-01T02:49:33;10.40;99.90
11188;DHT22;5650;52.700;7.306;2023-04-01T02:52:06;10.40;99.90
11188;DHT22;5650;52.700;7.306;2023-04-01T02:54:38;10.40;99.90
11188;DHT22;5650;52.700;7.306;2023-04-01T02:57:08;10.40;99.90
11188;DHT22;5650;52.700;7.306;2023-04-01T02:59:44;10.40;99.90
11188;DHT22;5650;52.700;7.306;2023-04-01T03:02:11;10.30;99.90
11188;DHT22;5650;52.700;7.306;2023-04-01T03:04:39;10.30;99.90
11188;DHT22;5650;52.700;7.306;2023-04-01T03:07:09;10.30;99.90
11188;DHT22;5650;52.700;7.306;2023-04-01T03:09:44;10.40;99.90
11188;DHT22;5650;52.700;7.306;2023-04-01T03:12:14;10.30;99.90
11188;DHT22;5650;52.700;7.306;2023-04-01T03:14:41;10.30;99.90
11188;DHT22;5650;52.700;7.306;2023-04-01T03:17:09;10.30;99.90
11188;DHT22;5650;52.700;7.306;2023-04-01T03:19:36;10.30;99.90
11188;DHT22;5650;52.700;7.306;2023-04-01T03:22:03;10.30;99.90
11188;DHT22;5650;52.700;7.306;2023-04-01T03:24:36;10.30;99.90
11188;DHT22;5650;52.700;7.306;2023-04-01T03:27:10;10.30;99.90
11188;DHT22;5650;52.700;7.306;2023-04-01T03:29:38;10.30;99.90
11188;DHT22;5650;52.700;7.306;2023-04-01T03:32:05;10.30;99.90
11188;DHT22;5650;52.700;7.306;2023-04-01T03:34:33;10.30;99.90
11188;DHT22;5650;52.700;7.306;2023-04-01T03:37:06;10.30;99.90
11188;DHT22;5650;52.700;7.306;2023-04-01T03:39:36;10.30;99.90
11188;DHT22;5650;52.700;7.306;2023-04-01T03:42:08;10.30;99.90
11188;DHT22;5650;52.700;7.306;2023-04-01T03:44:35;10.30;99.90
11188;DHT22;5650;52.700;7.306;2023-04-01T03:47:11;10.30;99.90
11188;DHT22;5650;52.700;7.306;2023-04-01T03:49:38;10.30;99.90
11188;DHT22;5650;52.700;7.306;2023-04-01T03:52:12;10.30;99.90
11188;DHT22;5650;52.700;7.306;2023-04-01T03:54:39;10.30;99.90
11188;DHT22;5650;52.700;7.306;2023-04-01T03:57:07;10.30;99.90
11188;DHT22;5650;52.700;7.306;2023-04-01T03:59:35;10.30;99.90
11188;DHT22;5650;52.700;7.306;2023-04-01T04:02:02;10.30;99.90
11188;DHT22;5650;52.700;7.306;2023-04-01T04:04:35;10.30;99.90
11188;DHT22;5650;52.700;7.306;2023-04-01T04:07:05;10.30;99.90
11188;DHT22;5650;52.700;7.306;2023-04-01T04:09:33;10.30;99.90
11188;DHT22;5650;52.700;7.306;2023-04-01T04:12:08;10.30;99.90
11188;DHT22;5650;52.700;7.306;2023-04-01T04:14:35;10.30;99.90
11188;DHT22;5650;52.700;7.306;2023-04-01T04:17:05;10.30;99.90
11188;DHT22;5650;52.700;7.306;2023-04-01T04:19:36;10.20;99.90
11188;DHT22;5650;52.700;7.306;2023-04-01T04:22:03;10.20;99.90
11188;DHT22;5650;52.700;7.306;2023-04-01T04:24:34;10.20;99.90
11188;DHT22;5650;52.700;7.306;2023-04-01T04:27:01;10.20;99.90
11188;DHT22;5650;52.700;7.306;2023-04-01T04:29:36;10.20;99.90
11188;DHT22;5650;52.700;7.306;2023-04-01T04:32:03;10.20;99.90
11188;DHT22;5650;52.700;7.306;2023-04-01T04:34:31;10.20;99.90
11188;DHT22;5650;52.700;7.306;2023-04-01T04:37:04;10.20;99.90
11188;DHT22;5650;52.700;7.306;2023-04-01T04:39:41;10.10;99.90
11188;DHT22;5650;52.700;7.306;2023-04-01T04:42:08;10.10;99.90
11188;DHT22;5650;52.700;7.306;2023-04-01T04:44:37;10.10;99.90
11188;DHT22;5650;52.700;7.306;2023-04-01T04:47:07;10.10;99.90
11188;DHT22;5650;52.700;7.306;2023-04-01T04:49:37;10.10;99.90
11188;DHT22;5650;52.700;7.306;2023-04-01T04:52:07;10.10;99.90
11188;DHT22;5650;52.700;7.306;2023-04-01T04:54:37;10.20;99.90
11188;DHT22;5650;52.700;7.306;2023-04-01T04:57:05;10.10;99.90
11188;DHT22;5650;52.700;7.306;2023-04-01T04:59:32;10.20;99.90
11188;DHT22;5650;52.700;7.306;2023-04-01T05:02:10;10.10;99.90
11188;DHT22;5650;52.700;7.306;2023-04-01T05:04:40;10.10;99.90
11188;DHT22;5650;52.700;7.306;2023-04-01T05:07:13;10.10;99.90
11188;DHT22;5650;52.700;7.306;2023-04-01T05:09:43;10.10;99.90
11188;DHT22;5650;52.700;7.306;2023-04-01T05:12:12;10.10;99.90
11188;DHT22;5650;52.700;7.306;2023-04-01T05:14:42;10.20;99.90
11188;DHT22;5650;52.700;7.306;2023-04-01T05:17:18;10.10;99.90
11188;DHT22;5650;52.700;7.306;2023-04-01T05:19:45;10.20;99.90
11188;DHT22;5650;52.700;7.306;2023-04-01T05:22:12;10.20;99.90
11188;DHT22;5650;52.700;7.306;2023-04-01T05:24:42;10.20;99.90
11188;DHT22;5650;52.700;7.306;2023-04-01T05:27:11;10.20;99.90
11188;DHT22;5650;52.700;7.306;2023-04-01T05:29:38;10.20;99.90
11188;DHT22;5650;52.700;7.306;2023-04-01T05:32:06;10.20;99.90
11188;DHT22;5650;52.700;7.306;2023-04-01T05:34:34;10.20;99.90
11188;DHT22;5650;52.700;7.306;2023-04-01T05:37:04;10.20;99.90
11188;DHT22;5650;52.700;7.306;2023-04-01T05:39:36;10.20;99.90
11188;DHT22;5650;52.700;7.306;2023-04-01T05:42:09;10.20;99.90
11188;DHT22;5650;52.700;7.306;2023-04-01T05:44:45;10.20;99.90
11188;DHT22;5650;52.700;7.306;2023-04-01T05:47:15;10.30;99.90
11188;DHT22;5650;52.700;7.306;2023-04-01T05:49:47;10.30;99.90
11188;DHT22;5650;52.700;7.306;2023-04-01T05:52:17;10.30;99.90
11188;DHT22;5650;52.700;7.306;2023-04-01T05:54:50;10.30;99.90
11188;DHT22;5650;52.700;7.306;2023-04-01T05:57:18;10.30;99.90
11188;DHT22;5650;52.700;7.306;2023-04-01T05:59:48;10.30;99.90
11188;DHT22;5650;52.700;7.306;2023-04-01T06:02:17;10.30;99.90
11188;DHT22;5650;52.700;7.306;2023-04-01T06:04:47;10.30;99.90
11188;DHT22;5650;52.700;7.306;2023-04-01T06:07:15;10.30;99.90
11188;DHT22;5650;52.700;7.306;2023-04-01T06:09:49;10.30;99.90
11188;DHT22;5650;52.700;7.306;2023-04-01T06:12:37;10.30;99.90
11188;DHT22;5650;52.700;7.306;2023-04-01T06:15:38;10.40;99.90
11188;DHT22;5650;52.700;7.306;2023-04-01T06:24:52;10.40;99.90
11188;DHT22;5650;52.700;7.306;2023-04-01T06:27:36;10.40;99.90
11188;DHT22;5650;52.700;7.306;2023-04-01T06:30:17;10.40;99.90
11188;DHT22;5650;52.700;7.306;2023-04-01T06:33:09;10.40;99.90
11188;DHT22;5650;52.700;7.306;2023-04-01T06:35:52;10.40;99.90
11188;DHT22;5650;52.700;7.306;2023-04-01T06:39:00;10.40;99.90
11188;DHT22;5650;52.700;7.306;2023-04-01T06:44:39;10.50;99.90
11188;DHT22;5650;52.700;7.306;2023-04-01T06:47:23;10.50;99.90
11188;DHT22;5650;52.700;7.306;2023-04-01T06:50:03;10.50;99.90
11188;DHT22;5650;52.700;7.306;2023-04-01T06:52:39;10.50;99.90
11188;DHT22;5650;52.700;7.306;2023-04-01T06:55:21;10.50;99.90
11188;DHT22;5650;52.700;7.306;2023-04-01T06:57:53;10.50;99.90
11188;DHT22;5650;52.700;7.306;2023-04-01T07:00:29;10.50;99.90
11188;DHT22;5650;52.700;7.306;2023-04-01T07:03:05;10.50;99.90
11188;DHT22;5650;52.700;7.306;2023-04-01T07:05:34;10.50;99.90
11188;DHT22;5650;52.700;7.306;2023-04-01T07:08:05;10.50;99.90
11188;DHT22;5650;52.700;7.306;2023-04-01T07:10:43;10.50;99.90
11188;DHT22;5650;52.700;7.306;2023-04-01T07:13:16;10.50;99.90
11188;DHT22;5650;52.700;7.306;2023-04-01T07:15:54;10.50;99.90
11188;DHT22;5650;52.700;7.306;2023-04-01T07:18:29;10.50;99.90
11188;DHT22;5650;52.700;7.306;2023-04-01T07:20:57;10.50;99.90
11188;DHT22;5650;52.700;7.306;2023-04-01T07:23:28;10.50;99.90
11188;DHT22;5650;52.700;7.306;2023-04-01T07:26:00;10.50;99.90
11188;DHT22;5650;52.700;7.306;2023-04-01T07:28:30;10.50;99.90
11188;DHT22;5650;52.700;7.306;2023-04-01T07:31:09;10.50;99.90
11188;DHT22;5650;52.700;7.306;2023-04-01T07:33:45;10.50;99.90
11188;DHT22;5650;52.700;7.306;2023-04-01T07:36:22;10.50;99.90
11188;DHT22;5650;52.700;7.306;2023-04-01T07:38:57;10.60;99.90
11188;DHT22;5650;52.700;7.306;2023-04-01T07:41:34;10.60;99.90
11188;DHT22;5650;52.700;7.306;2023-04-01T07:44:10;10.60;99.90
11188;DHT22;5650;52.700;7.306;2023-04-01T07:47:05;10.60;99.90
11188;DHT22;5650;52.700;7.306;2023-04-01T07:49:40;10.60;99.90
11188;DHT22;5650;52.700;7.306;2023-04-01T07:52:17;10.60;99.90
11188;DHT22;5650;52.700;7.306;2023-04-01T07:54:49;10.60;99.90
11188;DHT22;5650;52.700;7.306;2023-04-01T07:57:20;10.60;99.90
11188;DHT22;5650;52.700;7.306;2023-04-01T07:59:58;10.70;99.90
11188;DHT22;5650;52.700;7.306;2023-04-01T08:02:38;10.70;99.90
11188;DHT22;5650;52.700;7.306;2023-04-01T08:05:17;10.70;99.90
11188;DHT22;5650;52.700;7.306;2023-04-01T08:08:02;10.70;99.90
11188;DHT22;5650;52.700;7.306;2023-04-01T08:10:38;10.70;99.90
11188;DHT22;5650;52.700;7.306;2023-04-01T08:13:17;10.70;99.90
11188;DHT22;5650;52.700;7.306;2023-04-01T08:15:53;10.70;99.90
11188;DHT22;5650;52.700;7.306;2023-04-01T08:18:32;10.70;99.90
11188;DHT22;5650;52.700;7.306;2023-04-01T08:21:07;10.70;99.90
11188;DHT22;5650;52.700;7.306;2023-04-01T08:23:40;10.80;99.90
11188;DHT22;5650;52.700;7.306;2023-04-01T08:26:13;10.80;99.90
11188;DHT22;5650;52.700;7.306;2023-04-01T08:28:54;10.80;99.90
11188;DHT22;5650;52.700;7.306;2023-04-01T08:31:29;10.80;99.90
11188;DHT22;5650;52.700;7.306;2023-04-01T08:34:00;10.80;99.90
11188;DHT22;5650;52.700;7.306;2023-04-01T08:36:38;10.70;99.90
11188;DHT22;5650;52.700;7.306;2023-04-01T08:39:10;10.70;99.90
11188;DHT22;5650;52.700;7.306;2023-04-01T08:42:12;10.70;99.90
11188;DHT22;5650;52.700;7.306;2023-04-01T08:47:50;10.70;99.90
11188;DHT22;5650;52.700;7.306;2023-04-01T08:50:44;10.70;99.90
11188;DHT22;5650;52.700;7.306;2023-04-01T08:53:33;10.70;99.90
11188;DHT22;5650;52.700;7.306;2023-04-01T08:56:14;10.70;99.90
11188;DHT22;5650;52.700;7.306;2023-04-01T08:59:02;10.60;99.90
11188;DHT22;5650;52.700;7.306;2023-04-01T09:01:45;10.60;99.90
11188;DHT22;5650;52.700;7.306;2023-04-01T09:04:32;10.60;99.90
11188;DHT22;5650;52.700;7.306;2023-04-01T09:07:14;10.60;99.90
11188;DHT22;5650;52.700;7.306;2023-04-01T09:13:18;10.60;99.90
11188;DHT22;5650;52.700;7.306;2023-04-01T09:16:17;10.60;99.90
11188;DHT22;5650;52.700;7.306;2023-04-01T09:19:26;10.60;99.90
11188;DHT22;5650;52.700;7.306;2023-04-01T09:22:31;10.60;99.90
11188;DHT22;5650;52.700;7.306;2023-04-01T09:25:23;10.60;99.90
11188;DHT22;5650;52.700;7.306;2023-04-01T09:27:57;10.70;99.90
11188;DHT22;5650;52.700;7.306;2023-04-01T09:33:58;10.80;99.90
11188;DHT22;5650;52.700;7.306;2023-04-01T09:36:44;10.80;99.90
11188;DHT22;5650;52.700;7.306;2023-04-01T09:39:34;10.80;99.90
11188;DHT22;5650;52.700;7.306;2023-04-01T09:45:09;10.70;99.90
11188;DHT22;5650;52.700;7.306;2023-04-01T09:47:51;10.60;99.90
11188;DHT22;5650;52.700;7.306;2023-04-01T09:50:32;10.60;99.90
11188;DHT22;5650;52.700;7.306;2023-04-01T09:53:26;10.60;99.90
11188;DHT22;5650;52.700;7.306;2023-04-01T10:05:47;10.80;99.90
11188;DHT22;5650;52.700;7.306;2023-04-01T10:08:47;10.80;99.90
11188;DHT22;5650;52.700;7.306;2023-04-01T10:14:57;10.90;99.90
11188;DHT22;5650;52.700;7.306;2023-04-01T10:21:06;10.90;99.90
11188;DHT22;5650;52.700;7.306;2023-04-01T10:33:32;11.00;99.90
11188;DHT22;5650;52.700;7.306;2023-04-01T10:45:55;11.20;99.90
11188;DHT22;5650;52.700;7.306;2023-04-01T10:48:54;11.30;99.90
11188;DHT22;5650;52.700;7.306;2023-04-01T10:52:05;11.40;99.90
11188;DHT22;5650;52.700;7.306;2023-04-01T10:54:50;11.40;99.90
11188;DHT22;5650;52.700;7.306;2023-04-01T10:57:57;11.50;99.90
11188;DHT22;5650;52.700;7.306;2023-04-01T11:01:02;11.40;99.90
11188;DHT22;5650;52.700;7.306;2023-04-01T11:04:09;11.40;99.90
11188;DHT22;5650;52.700;7.306;2023-04-01T11:13:23;11.30;99.90
11188;DHT22;5650;52.700;7.306;2023-04-01T11:16:29;11.30;99.90
11188;DHT22;5650;52.700;7.306;2023-04-01T11:25:49;11.30;99.90
11188;DHT22;5650;52.700;7.306;2023-04-01T11:29:18;11.20;99.90
11188;DHT22;5650;52.700;7.306;2023-04-01T11:31:55;11.20;99.90
11188;DHT22;5650;52.700;7.306;2023-04-01T11:34:56;11.20;99.90
11188;DHT22;5650;52.700;7.306;2023-04-01T11:37:40;11.20;99.90
11188;DHT22;5650;52.700;7.306;2023-04-01T11:40:19;11.20;99.90
11188;DHT22;5650;52.700;7.306;2023-04-01T11:42:57;11.20;99.90
11188;DHT22;5650;52.700;7.306;2023-04-01T11:45:36;11.20;99.90
11188;DHT22;5650;52.700;7.306;2023-04-01T11:54:06;11.20;99.90
11188;DHT22;5650;52.700;7.306;2023-04-01T11:56:46;11.20;99.90
11188;DHT22;5650;52.700;7.306;2023-04-01T11:59:47;11.20;99.90
11188;DHT22;5650;52.700;7.306;2023-04-01T12:02:23;11.30;99.90
11188;DHT22;5650;52.700;7.306;2023-04-01T12:05:08;11.30;99.90
11188;DHT22;5650;52.700;7.306;2023-04-01T12:08:04;11.40;99.90
11188;DHT22;5650;52.700;7.306;2023-04-01T12:10:39;11.40;99.90
11188;DHT22;5650;52.700;7.306;2023-04-01T12:13:17;11.40;99.90
11188;DHT22;5650;52.700;7.306;2023-04-01T12:16:05;11.40;99.90
11188;DHT22;5650;52.700;7.306;2023-04-01T12:18:40;11.30;99.90
11188;DHT22;5650;52.700;7.306;2023-04-01T12:21:18;11.30;99.90
11188;DHT22;5650;52.700;7.306;2023-04-01T12:26:59;11.30;99.90
11188;DHT22;5650;52.700;7.306;2023-04-01T12:29:48;11.20;99.90
11188;DHT22;5650;52.700;7.306;2023-04-01T12:32:25;11.20;99.90
11188;DHT22;5650;52.700;7.306;2023-04-01T12:35:18;11.10;99.90
11188;DHT22;5650;52.700;7.306;2023-04-01T12:37:54;11.10;99.90
11188;DHT22;5650;52.700;7.306;2023-04-01T12:40:41;11.10;99.90
11188;DHT22;5650;52.700;7.306;2023-04-01T12:43:28;11.10;99.90
11188;DHT22;5650;52.700;7.306;2023-04-01T12:46:05;11.10;99.90
11188;DHT22;5650;52.700;7.306;2023-04-01T12:51:56;11.20;99.90
11188;DHT22;5650;52.700;7.306;2023-04-01T12:55:03;11.20;99.90
11188;DHT22;5650;52.700;7.306;2023-04-01T12:57:50;11.30;99.90
11188;DHT22;5650;52.700;7.306;2023-04-01T13:00:31;11.40;99.90
11188;DHT22;5650;52.700;7.306;2023-04-01T13:03:15;11.40;99.90
11188;DHT22;5650;52.700;7.306;2023-04-01T13:09:11;11.50;99.90
11188;DHT22;5650;52.700;7.306;2023-04-01T13:11:52;11.50;99.90
11188;DHT22;5650;52.700;7.306;2023-04-01T13:14:47;11.40;99.90
11188;DHT22;5650;52.700;7.306;2023-04-01T13:17:20;11.30;99.90
11188;DHT22;5650;52.700;7.306;2023-04-01T13:19:53;11.20;99.90
11188;DHT22;5650;52.700;7.306;2023-04-01T13:22:29;11.10;99.90
11188;DHT22;5650;52.700;7.306;2023-04-01T13:25:04;11.00;99.90
11188;DHT22;5650;52.700;7.306;2023-04-01T13:27:35;10.90;99.90
11188;DHT22;5650;52.700;7.306;2023-04-01T13:30:21;10.90;99.90
11188;DHT22;5650;52.700;7.306;2023-04-01T13:32:57;10.90;99.90
11188;DHT22;5650;52.700;7.306;2023-04-01T13:35:36;10.80;99.90
11188;DHT22;5650;52.700;7.306;2023-04-01T13:38:20;10.60;99.90
11188;DHT22;5650;52.700;7.306;2023-04-01T13:41:00;10.50;99.90
11188;DHT22;5650;52.700;7.306;2023-04-01T13:43:31;10.40;99.90
11188;DHT22;5650;52.700;7.306;2023-04-01T13:52:27;10.30;99.90
11188;DHT22;5650;52.700;7.306;2023-04-01T13:57:58;10.30;99.90
11188;DHT22;5650;52.700;7.306;2023-04-01T14:00:38;10.30;99.90
11188;DHT22;5650;52.700;7.306;2023-04-01T14:03:28;10.30;99.90
11188;DHT22;5650;52.700;7.306;2023-04-01T14:06:14;10.20;99.90
11188;DHT22;5650;52.700;7.306;2023-04-01T14:09:08;10.20;99.90
11188;DHT22;5650;52.700;7.306;2023-04-01T14:11:41;10.10;99.90
11188;DHT22;5650;52.700;7.306;2023-04-01T14:14:21;10.10;99.90
11188;DHT22;5650;52.700;7.306;2023-04-01T14:17:21;10.00;99.90
11188;DHT22;5650;52.700;7.306;2023-04-01T14:23:24;10.00;99.90
11188;DHT22;5650;52.700;7.306;2023-04-01T14:26:13;10.00;99.90
11188;DHT22;5650;52.700;7.306;2023-04-01T14:28:48;9.90;99.90
11188;DHT22;5650;52.700;7.306;2023-04-01T14:31:54;9.90;99.90
11188;DHT22;5650;52.700;7.306;2023-04-01T14:34:43;9.90;99.90
11188;DHT22;5650;52.700;7.306;2023-04-01T14:37:23;9.80;99.90
11188;DHT22;5650;52.700;7.306;2023-04-01T14:40:21;9.80;99.90
11188;DHT22;5650;52.700;7.306;2023-04-01T14:43:06;9.90;99.90
11188;DHT22;5650;52.700;7.306;2023-04-01T14:45:46;9.90;99.90
11188;DHT22;5650;52.700;7.306;2023-04-01T14:48:25;9.80;99.90
11188;DHT22;5650;52.700;7.306;2023-04-01T14:51:03;9.80;99.90
11188;DHT22;5650;52.700;7.306;2023-04-01T14:53:33;9.70;99.90
11188;DHT22;5650;52.700;7.306;2023-04-01T14:56:04;9.70;99.90
11188;DHT22;5650;52.700;7.306;2023-04-01T14:58:42;9.60;99.90
11188;DHT22;5650;52.700;7.306;2023-04-01T15:01:34;9.60;99.90
11188;DHT22;5650;52.700;7.306;2023-04-01T15:07:14;9.60;99.90
11188;DHT22;5650;52.700;7.306;2023-04-01T15:09:53;9.60;99.90
11188;DHT22;5650;52.700;7.306;2023-04-01T15:12:29;9.50;99.90
11188;DHT22;5650;52.700;7.306;2023-04-01T15:15:15;9.40;99.90
11188;DHT22;5650;52.700;7.306;2023-04-01T15:17:57;9.40;99.90
11188;DHT22;5650;52.700;7.306;2023-04-01T15:20:39;9.30;99.90
11188;DHT22;5650;52.700;7.306;2023-04-01T15:23:21;9.30;99.90
11188;DHT22;5650;52.700;7.306;2023-04-01T15:26:13;9.30;99.90
11188;DHT22;5650;52.700;7.306;2023-04-01T15:28:50;9.40;99.90
11188;DHT22;5650;52.700;7.306;2023-04-01T15:31:25;9.40;99.90
11188;DHT22;5650;52.700;7.306;2023-04-01T15:34:08;9.50;99.90
11188;DHT22;5650;52.700;7.306;2023-04-01T15:36:44;9.40;99.90
11188;DHT22;5650;52.700;7.306;2023-04-01T15:39:16;9.40;99.90
11188;DHT22;5650;52.700;7.306;2023-04-01T15:42:04;9.40;99.90
11188;DHT22;5650;52.700;7.306;2023-04-01T15:44:43;9.40;99.90
11188;DHT22;5650;52.700;7.306;2023-04-01T15:47:36;9.40;99.90
11188;DHT22;5650;52.700;7.306;2023-04-01T15:50:28;9.40;99.90
11188;DHT22;5650;52.700;7.306;2023-04-01T15:53:07;9.30;99.90
11188;DHT22;5650;52.700;7.306;2023-04-01T15:55:47;9.30;99.90
11188;DHT22;5650;52.700;7.306;2023-04-01T15:58:41;9.20;99.90
11188;DHT22;5650;52.700;7.306;2023-04-01T16:01:26;9.20;99.90
11188;DHT22;5650;52.700;7.306;2023-04-01T16:04:22;9.10;99.90
11188;DHT22;5650;52.700;7.306;2023-04-01T16:07:24;9.00;99.90
11188;DHT22;5650;52.700;7.306;2023-04-01T16:10:23;8.90;99.90
11188;DHT22;5650;52.700;7.306;2023-04-01T16:13:02;8.90;99.90
11188;DHT22;5650;52.700;7.306;2023-04-01T16:15:41;8.80;99.90
11188;DHT22;5650;52.700;7.306;2023-04-01T16:18:48;8.70;99.90
11188;DHT22;5650;52.700;7.306;2023-04-01T16:21:36;8.70;99.90
11188;DHT22;5650;52.700;7.306;2023-04-01T16:24:33;8.70;99.90
11188;DHT22;5650;52.700;7.306;2023-04-01T16:27:12;8.70;99.90
11188;DHT22;5650;52.700;7.306;2023-04-01T16:29:46;8.70;99.90
11188;DHT22;5650;52.700;7.306;2023-04-01T16:32:40;8.70;99.90
11188;DHT22;5650;52.700;7.306;2023-04-01T16:35:25;8.60;99.90
11188;DHT22;5650;52.700;7.306;2023-04-01T16:37:59;8.60;99.90
11188;DHT22;5650;52.700;7.306;2023-04-01T16:40:41;8.60;99.90
11188;DHT22;5650;52.700;7.306;2023-04-01T16:43:16;8.60;99.90
11188;DHT22;5650;52.700;7.306;2023-04-01T16:45:54;8.50;99.90
11188;DHT22;5650;52.700;7.306;2023-04-01T16:48:34;8.50;99.90
11188;DHT22;5650;52.700;7.306;2023-04-01T16:51:07;8.50;99.90
11188;DHT22;5650;52.700;7.306;2023-04-01T16:53:45;8.50;99.90
11188;DHT22;5650;52.700;7.306;2023-04-01T16:56:20;8.50;99.90
11188;DHT22;5650;52.700;7.306;2023-04-01T16:59:03;8.50;99.90
11188;DHT22;5650;52.700;7.306;2023-04-01T17:01:44;8.50;99.90
11188;DHT22;5650;52.700;7.306;2023-04-01T17:04:23;8.50;99.90
11188;DHT22;5650;52.700;7.306;2023-04-01T17:06:57;8.50;99.90
11188;DHT22;5650;52.700;7.306;2023-04-01T17:12:27;8.50;99.90
11188;DHT22;5650;52.700;7.306;2023-04-01T17:15:05;8.40;99.90
11188;DHT22;5650;52.700;7.306;2023-04-01T17:17:45;8.40;99.90
11188;DHT22;5650;52.700;7.306;2023-04-01T17:20:34;8.30;99.90
11188;DHT22;5650;52.700;7.306;2023-04-01T17:23:18;8.30;99.90
11188;DHT22;5650;52.700;7.306;2023-04-01T17:26:20;8.20;99.90
11188;DHT22;5650;52.700;7.306;2023-04-01T17:29:05;8.20;99.90
11188;DHT22;5650;52.700;7.306;2023-04-01T17:31:46;8.20;99.90
11188;DHT22;5650;52.700;7.306;2023-04-01T17:34:32;8.10;99.90
11188;DHT22;5650;52.700;7.306;2023-04-01T17:37:18;8.10;99.90
11188;DHT22;5650;52.700;7.306;2023-04-01T17:40:00;8.10;99.90
11188;DHT22;5650;52.700;7.306;2023-04-01T17:42:46;8.10;99.90
11188;DHT22;5650;52.700;7.306;2023-04-01T17:45:21;8.00;99.90
11188;DHT22;5650;52.700;7.306;2023-04-01T17:48:01;8.00;99.90
11188;DHT22;5650;52.700;7.306;2023-04-01T17:50:44;8.00;99.90
11188;DHT22;5650;52.700;7.306;2023-04-01T17:53:23;8.00;99.90
11188;DHT22;5650;52.700;7.306;2023-04-01T17:56:08;7.90;99.90
11188;DHT22;5650;52.700;7.306;2023-04-01T17:58:45;7.90;99.90
11188;DHT22;5650;52.700;7.306;2023-04-01T18:01:20;7.80;99.90
11188;DHT22;5650;52.700;7.306;2023-04-01T18:07:08;7.70;99.90
11188;DHT22;5650;52.700;7.306;2023-04-01T18:09:45;7.70;99.90
11188;DHT22;5650;52.700;7.306;2023-04-01T18:12:20;7.60;99.90
11188;DHT22;5650;52.700;7.306;2023-04-01T18:15:08;7.60;99.90
11188;DHT22;5650;52.700;7.306;2023-04-01T18:17:57;7.60;99.90
11188;DHT22;5650;52.700;7.306;2023-04-01T18:20:37;7.50;99.90
11188;DHT22;5650;52.700;7.306;2023-04-01T18:23:19;7.50;99.90
11188;DHT22;5650;52.700;7.306;2023-04-01T18:25:52;7.40;99.90
11188;DHT22;5650;52.700;7.306;2023-04-01T18:28:32;7.40;99.90
11188;DHT22;5650;52.700;7.306;2023-04-01T18:31:12;7.30;99.90
11188;DHT22;5650;52.700;7.306;2023-04-01T18:33:49;7.30;99.90
11188;DHT22;5650;52.700;7.306;2023-04-01T18:36:26;7.30;99.90
11188;DHT22;5650;52.700;7.306;2023-04-01T18:39:03;7.30;99.90
11188;DHT22;5650;52.700;7.306;2023-04-01T18:41:38;7.20;99.90
11188;DHT22;5650;52.700;7.306;2023-04-01T18:44:24;7.20;99.90
11188;DHT22;5650;52.700;7.306;2023-04-01T18:47:06;7.20;99.90
11188;DHT22;5650;52.700;7.306;2023-04-01T18:49:43;7.20;99.90
11188;DHT22;5650;52.700;7.306;2023-04-01T18:52:21;7.10;99.90
11188;DHT22;5650;52.700;7.306;2023-04-01T18:58:11;7.10;99.90
11188;DHT22;5650;52.700;7.306;2023-04-01T19:00:43;7.10;99.90